sensor_id;sensor_type;location;lat;lon;timestamp;pressure;altitude;pressure_sealevel;temperature;humidity
50364;BME280;36272;59.400;17.982;2023-07-02T00:00:13;99250.81;;;17.59;68.38
50364;BME280;36272;59.400;17.982;2023-07-02T00:05:15;99243.63;;;17.54;68.75
50364;BME280;36272;59.400;17.982;2023-07-02T00:10:19;99237.50;;;17.48;69.17
50364;BME280;36272;59.400;17.982;2023-07-02T00:15:20;99235.41;;;17.45;69.35
50364;BME280;36272;59.400;17.982;2023-07-02T00:20:22;99223.50;;;17.46;70.12
50364;BME280;36272;59.400;17.982;2023-07-02T00:25:24;99217.22;;;17.51;69.85
50364;BME280;36272;59.400;17.982;2023-07-02T00:30:30;99211.19;;;17.54;70.07
50364;BME280;36272;59.400;17.982;2023-07-02T00:35:32;99227.09;;;17.56;69.80
50364;BME280;36272;59.400;17.982;2023-07-02T00:40:34;99214.38;;;17.56;69.86
50364;BME280;36272;59.400;17.982;2023-07-02T00:45:35;99205.47;;;17.56;69.72
50364;BME280;36272;59.400;17.982;2023-07-02T00:50:42;99180.97;;;17.52;70.14
50364;BME280;36272;59.400;17.982;2023-07-02T00:55:43;99193.50;;;17.48;69.79
50364;BME280;36272;59.400;17.982;2023-07-02T01:00:45;99201.81;;;17.37;69.91
50364;BME280;36272;59.400;17.982;2023-07-02T01:05:47;99189.03;;;17.29;70.37
50364;BME280;36272;59.400;17.982;2023-07-02T01:10:48;99175.34;;;17.26;70.34
50364;BME280;36272;59.400;17.982;2023-07-02T01:15:50;99174.22;;;17.27;70.90
50364;BME280;36272;59.400;17.982;2023-07-02T01:20:52;99170.31;;;17.33;70.88
50364;BME280;36272;59.400;17.982;2023-07-02T01:25:54;99161.09;;;17.34;70.64
50364;BME280;36272;59.400;17.982;2023-07-02T01:31:00;99158.41;;;17.34;71.12
50364;BME280;36272;59.400;17.982;2023-07-02T01:36:02;99152.88;;;17.39;71.34
50364;BME280;36272;59.400;17.982;2023-07-02T01:41:04;99141.94;;;17.44;71.15
50364;BME280;36272;59.400;17.982;2023-07-02T01:46:05;99139.72;;;17.46;71.11
50364;BME280;36272;59.400;17.982;2023-07-02T01:51:17;99122.72;;;17.46;71.13
50364;BME280;36272;59.400;17.982;2023-07-02T01:56:20;99141.31;;;17.47;71.51
50364;BME280;36272;59.400;17.982;2023-07-02T02:01:26;99111.91;;;17.46;71.53
50364;BME280;36272;59.400;17.982;2023-07-02T02:06:28;99125.59;;;17.49;71.43
50364;BME280;36272;59.400;17.982;2023-07-02T02:11:30;99106.69;;;17.49;71.57
50364;BME280;36272;59.400;17.982;2023-07-02T02:16:32;99118.47;;;17.53;71.59
50364;BME280;36272;59.400;17.982;2023-07-02T02:21:37;99104.06;;;17.58;71.51
50364;BME280;36272;59.400;17.982;2023-07-02T02:26:38;99101.25;;;17.63;71.51
50364;BME280;36272;59.400;17.982;2023-07-02T02:31:45;99081.25;;;17.73;71.65
50364;BME280;36272;59.400;17.982;2023-07-02T02:36:46;99095.63;;;17.82;71.23
50364;BME280;36272;59.400;17.982;2023-07-02T02:41:48;99090.25;;;17.91;71.25
50364;BME280;36272;59.400;17.982;2023-07-02T02:46:50;99096.00;;;17.98;71.32
50364;BME280;36272;59.400;17.982;2023-07-02T02:51:52;99098.16;;;18.10;71.15
50364;BME280;36272;59.400;17.982;2023-07-02T02:56:53;99097.91;;;18.21;71.80
50364;BME280;36272;59.400;17.982;2023-07-02T03:01:55;99103.81;;;18.32;71.63
50364;BME280;36272;59.400;17.982;2023-07-02T03:06:57;99091.59;;;18.43;71.89
50364;BME280;36272;59.400;17.982;2023-07-02T03:12:03;99069.19;;;18.51;72.27
50364;BME280;36272;59.400;17.982;2023-07-02T03:17:06;99062.31;;;18.63;71.62
50364;BME280;36272;59.400;17.982;2023-07-02T03:22:08;99070.63;;;18.75;71.41
50364;BME280;36272;59.400;17.982;2023-07-02T03:27:13;99042.44;;;18.85;71.53
50364;BME280;36272;59.400;17.982;2023-07-02T03:32:14;99057.44;;;19.00;70.96
50364;BME280;36272;59.400;17.982;2023-07-02T03:37:16;99053.47;;;19.15;70.81
50364;BME280;36272;59.400;17.982;2023-07-02T03:42:22;99029.22;;;19.27;70.51
50364;BME280;36272;59.400;17.982;2023-07-02T03:47:24;99041.97;;;19.36;70.25
50364;BME280;36272;59.400;17.982;2023-07-02T03:52:26;99034.94;;;19.43;70.09
50364;BME280;36272;59.400;17.982;2023-07-02T03:57:28;99021.38;;;19.52;70.30
50364;BME280;36272;59.400;17.982;2023-07-02T04:02:29;99025.34;;;19.64;70.08
50364;BME280;36272;59.400;17.982;2023-07-02T04:07:31;99017.94;;;19.73;69.35
50364;BME280;36272;59.400;17.982;2023-07-02T04:12:32;99015.22;;;19.82;69.34
50364;BME280;36272;59.400;17.982;2023-07-02T04:17:34;99011.03;;;19.93;68.64
50364;BME280;36272;59.400;17.982;2023-07-02T04:22:36;99007.50;;;20.01;68.46
50364;BME280;36272;59.400;17.982;2023-07-02T04:27:37;98994.16;;;20.17;68.18
50364;BME280;36272;59.400;17.982;2023-07-02T04:32:54;98976.84;;;20.31;67.70
50364;BME280;36272;59.400;17.982;2023-07-02T04:37:56;98992.75;;;20.41;67.24
50364;BME280;36272;59.400;17.982;2023-07-02T04:43:03;98968.34;;;20.54;67.27
50364;BME280;36272;59.400;17.982;2023-07-02T04:48:06;98967.75;;;20.69;67.09
50364;BME280;36272;59.400;17.982;2023-07-02T04:53:08;98967.19;;;20.85;66.54
50364;BME280;36272;59.400;17.982;2023-07-02T04:58:09;98962.00;;;20.92;66.47
50364;BME280;36272;59.400;17.982;2023-07-02T05:03:11;98959.22;;;21.01;66.32
50364;BME280;36272;59.400;17.982;2023-07-02T05:08:13;98956.59;;;21.04;66.02
50364;BME280;36272;59.400;17.982;2023-07-02T05:13:20;98927.84;;;21.03;65.88
50364;BME280;36272;59.400;17.982;2023-07-02T05:18:22;98945.88;;;21.08;65.95
50364;BME280;36272;59.400;17.982;2023-07-02T05:23:23;98949.06;;;21.10;65.43
50364;BME280;36272;59.400;17.982;2023-07-02T05:28:25;98935.25;;;21.15;65.36
50364;BME280;36272;59.400;17.982;2023-07-02T05:33:27;98925.66;;;21.30;64.94
50364;BME280;36272;59.400;17.982;2023-07-02T05:38:28;98917.94;;;21.45;64.93
50364;BME280;36272;59.400;17.982;2023-07-02T05:43:30;98915.69;;;21.59;64.68
50364;BME280;36272;59.400;17.982;2023-07-02T05:48:32;98911.06;;;21.72;64.52
50364;BME280;36272;59.400;17.982;2023-07-02T05:53:34;98894.59;;;21.93;64.12
50364;BME280;36272;59.400;17.982;2023-07-02T05:58:35;98896.53;;;22.05;63.55
50364;BME280;36272;59.400;17.982;2023-07-02T06:03:44;98887.56;;;22.05;63.44
50364;BME280;36272;59.400;17.982;2023-07-02T06:08:46;98904.56;;;22.02;63.67
50364;BME280;36272;59.400;17.982;2023-07-02T06:13:48;98903.88;;;22.05;63.29
50364;BME280;36272;59.400;17.982;2023-07-02T06:18:50;98901.38;;;22.12;63.16
50364;BME280;36272;59.400;17.982;2023-07-02T06:23:56;98880.38;;;22.12;62.96
50364;BME280;36272;59.400;17.982;2023-07-02T06:29:01;98894.81;;;22.13;62.64
50364;BME280;36272;59.400;17.982;2023-07-02T06:34:07;98863.38;;;22.16;62.46
50364;BME280;36272;59.400;17.982;2023-07-02T06:39:09;98876.19;;;22.27;62.64
50364;BME280;36272;59.400;17.982;2023-07-02T06:44:11;98879.06;;;22.35;62.26
50364;BME280;36272;59.400;17.982;2023-07-02T06:49:13;98864.78;;;22.38;62.37
50364;BME280;36272;59.400;17.982;2023-07-02T06:54:15;98859.91;;;22.43;62.32
50364;BME280;36272;59.400;17.982;2023-07-02T06:59:23;98842.28;;;22.41;62.27
50364;BME280;36272;59.400;17.982;2023-07-02T07:04:26;98838.69;;;22.37;62.37
50364;BME280;36272;59.400;17.982;2023-07-02T07:09:29;98841.22;;;22.30;62.50
50364;BME280;36272;59.400;17.982;2023-07-02T07:14:32;98827.75;;;22.21;62.58
50364;BME280;36272;59.400;17.982;2023-07-02T07:19:33;98838.53;;;22.17;62.65
50364;BME280;36272;59.400;17.982;2023-07-02T07:24:35;98825.03;;;22.21;62.59
50364;BME280;36272;59.400;17.982;2023-07-02T07:29:50;98830.47;;;22.21;62.58
50364;BME280;36272;59.400;17.982;2023-07-02T07:34:52;98806.97;;;22.28;61.78
50364;BME280;36272;59.400;17.982;2023-07-02T07:40:10;98796.38;;;22.11;62.70
50364;BME280;36272;59.400;17.982;2023-07-02T07:45:13;98811.34;;;22.05;63.10
50364;BME280;36272;59.400;17.982;2023-07-02T07:50:23;98801.53;;;22.00;63.21
50364;BME280;36272;59.400;17.982;2023-07-02T07:55:31;98784.31;;;21.96;63.86
50364;BME280;36272;59.400;17.982;2023-07-02T08:00:44;98787.13;;;21.87;65.55
50364;BME280;36272;59.400;17.982;2023-07-02T08:05:45;98809.88;;;21.66;67.46
50364;BME280;36272;59.400;17.982;2023-07-02T08:10:52;98790.38;;;21.52;68.59
50364;BME280;36272;59.400;17.982;2023-07-02T08:15:54;98815.06;;;21.47;69.23
50364;BME280;36272;59.400;17.982;2023-07-02T08:20:57;98796.28;;;21.29;69.80
50364;BME280;36272;59.400;17.982;2023-07-02T08:25:59;98811.22;;;21.10;70.25
50364;BME280;36272;59.400;17.982;2023-07-02T08:31:00;98809.63;;;20.85;71.25
50364;BME280;36272;59.400;17.982;2023-07-02T08:36:02;98798.88;;;20.55;72.51
50364;BME280;36272;59.400;17.982;2023-07-02T08:41:04;98804.25;;;20.30;72.98
50364;BME280;36272;59.400;17.982;2023-07-02T08:46:08;98783.59;;;20.04;74.11
50364;BME280;36272;59.400;17.982;2023-07-02T08:51:11;98782.19;;;19.98;71.40
50364;BME280;36272;59.400;17.982;2023-07-02T08:56:14;98817.16;;;19.69;74.42
50364;BME280;36272;59.400;17.982;2023-07-02T09:02:00;98801.88;;;19.35;75.59
50364;BME280;36272;59.400;17.982;2023-07-02T09:12:07;98778.22;;;18.75;79.07
50364;BME280;36272;59.400;17.982;2023-07-02T09:17:09;98782.38;;;18.64;79.43
50364;BME280;36272;59.400;17.982;2023-07-02T09:22:11;98766.81;;;18.52;81.41
50364;BME280;36272;59.400;17.982;2023-07-02T09:27:13;98776.03;;;18.51;81.63
50364;BME280;36272;59.400;17.982;2023-07-02T09:32:24;98754.56;;;18.54;82.55
50364;BME280;36272;59.400;17.982;2023-07-02T09:37:27;98749.72;;;18.69;82.86
50364;BME280;36272;59.400;17.982;2023-07-02T09:42:29;98754.09;;;18.91;83.55
50364;BME280;36272;59.400;17.982;2023-07-02T09:47:33;98723.19;;;19.22;83.77
50364;BME280;36272;59.400;17.982;2023-07-02T09:52:36;98724.88;;;19.78;80.89
50364;BME280;36272;59.400;17.982;2023-07-02T09:57:38;98719.91;;;19.80;81.08
50364;BME280;36272;59.400;17.982;2023-07-02T10:02:41;98735.00;;;19.90;81.80
50364;BME280;36272;59.400;17.982;2023-07-02T10:07:42;98744.59;;;19.87;81.48
50364;BME280;36272;59.400;17.982;2023-07-02T10:12:47;98718.25;;;19.67;82.37
50364;BME280;36272;59.400;17.982;2023-07-02T10:17:57;98720.47;;;19.52;82.01
50364;BME280;36272;59.400;17.982;2023-07-02T10:22:59;98720.25;;;19.36;82.22
50364;BME280;36272;59.400;17.982;2023-07-02T10:28:19;98699.25;;;19.33;82.69
50364;BME280;36272;59.400;17.982;2023-07-02T10:33:51;98703.09;;;19.23;82.66
50364;BME280;36272;59.400;17.982;2023-07-02T10:38:53;98714.81;;;19.15;83.56
50364;BME280;36272;59.400;17.982;2023-07-02T10:44:15;98676.69;;;19.20;83.79
50364;BME280;36272;59.400;17.982;2023-07-02T10:49:18;98675.22;;;19.23;83.86
50364;BME280;36272;59.400;17.982;2023-07-02T10:54:22;98666.63;;;19.42;83.97
50364;BME280;36272;59.400;17.982;2023-07-02T10:59:25;98657.25;;;19.60;83.78
50364;BME280;36272;59.400;17.982;2023-07-02T11:04:26;98666.41;;;19.89;83.59
50364;BME280;36272;59.400;17.982;2023-07-02T11:09:28;98684.31;;;20.03;83.03
50364;BME280;36272;59.400;17.982;2023-07-02T11:14:31;98663.59;;;19.98;83.16
50364;BME280;36272;59.400;17.982;2023-07-02T11:19:34;98665.16;;;19.87;83.01
50364;BME280;36272;59.400;17.982;2023-07-02T11:24:44;98652.53;;;19.70;83.49
50364;BME280;36272;59.400;17.982;2023-07-02T11:29:59;98636.88;;;19.54;83.69
50364;BME280;36272;59.400;17.982;2023-07-02T11:35:01;98652.63;;;19.40;84.00
50364;BME280;36272;59.400;17.982;2023-07-02T11:40:02;98660.84;;;19.31;84.35
50364;BME280;36272;59.400;17.982;2023-07-02T11:45:11;98659.63;;;19.20;84.58
50364;BME280;36272;59.400;17.982;2023-07-02T11:50:15;98685.31;;;19.13;84.96
50364;BME280;36272;59.400;17.982;2023-07-02T11:55:17;98691.75;;;19.09;84.96
50364;BME280;36272;59.400;17.982;2023-07-02T12:00:19;98684.28;;;19.06;85.15
50364;BME280;36272;59.400;17.982;2023-07-02T12:05:20;98673.63;;;19.00;85.00
50364;BME280;36272;59.400;17.982;2023-07-02T12:10:27;98663.59;;;18.92;85.31
50364;BME280;36272;59.400;17.982;2023-07-02T12:15:29;98666.22;;;18.80;85.67
50364;BME280;36272;59.400;17.982;2023-07-02T12:20:32;98651.13;;;18.70;85.96
50364;BME280;36272;59.400;17.982;2023-07-02T12:25:33;98661.84;;;18.66;86.35
50364;BME280;36272;59.400;17.982;2023-07-02T12:30:41;98646.38;;;18.67;86.61
50364;BME280;36272;59.400;17.982;2023-07-02T12:35:43;98673.72;;;18.74;86.63
50364;BME280;36272;59.400;17.982;2023-07-02T12:40:45;98672.91;;;18.82;86.78
50364;BME280;36272;59.400;17.982;2023-07-02T12:45:47;98676.66;;;18.90;86.05
50364;BME280;36272;59.400;17.982;2023-07-02T12:50:56;98662.34;;;18.90;86.07
50364;BME280;36272;59.400;17.982;2023-07-02T12:55:57;98685.09;;;18.97;86.30
50364;BME280;36272;59.400;17.982;2023-07-02T13:00:59;98680.09;;;19.08;86.11
50364;BME280;36272;59.400;17.982;2023-07-02T13:06:01;98681.19;;;19.16;85.80
50364;BME280;36272;59.400;17.982;2023-07-02T13:11:13;98675.81;;;19.28;85.27
50364;BME280;36272;59.400;17.982;2023-07-02T13:16:16;98689.25;;;19.25;85.63
50364;BME280;36272;59.400;17.982;2023-07-02T13:21:22;98672.06;;;19.21;86.30
50364;BME280;36272;59.400;17.982;2023-07-02T13:26:24;98680.19;;;19.21;86.57
50364;BME280;36272;59.400;17.982;2023-07-02T13:31:26;98675.63;;;19.12;87.06
50364;BME280;36272;59.400;17.982;2023-07-02T13:36:27;98678.47;;;19.16;87.77
50364;BME280;36272;59.400;17.982;2023-07-02T13:41:29;98690.09;;;19.16;87.42
50364;BME280;36272;59.400;17.982;2023-07-02T13:46:32;98697.56;;;19.20;87.66
50364;BME280;36272;59.400;17.982;2023-07-02T13:51:33;98703.31;;;19.18;87.45
50364;BME280;36272;59.400;17.982;2023-07-02T13:56:35;98708.13;;;19.12;87.93
50364;BME280;36272;59.400;17.982;2023-07-02T14:01:36;98712.31;;;19.01;88.67
50364;BME280;36272;59.400;17.982;2023-07-02T14:06:38;98711.81;;;19.08;88.00
50364;BME280;36272;59.400;17.982;2023-07-02T14:11:41;98708.84;;;19.00;88.85
50364;BME280;36272;59.400;17.982;2023-07-02T14:16:44;98718.22;;;18.94;88.57
50364;BME280;36272;59.400;17.982;2023-07-02T14:21:46;98726.44;;;18.77;89.38
50364;BME280;36272;59.400;17.982;2023-07-02T14:26:48;98731.75;;;18.64;89.41
50364;BME280;36272;59.400;17.982;2023-07-02T14:31:52;98732.28;;;18.49;89.17
50364;BME280;36272;59.400;17.982;2023-07-02T14:36:55;98727.06;;;18.35;89.32
50364;BME280;36272;59.400;17.982;2023-07-02T14:41:57;98743.31;;;18.26;89.40
50364;BME280;36272;59.400;17.982;2023-07-02T14:46:58;98751.44;;;18.17;89.84
50364;BME280;36272;59.400;17.982;2023-07-02T14:52:00;98764.19;;;17.99;90.16
50364;BME280;36272;59.400;17.982;2023-07-02T14:57:02;98756.84;;;17.64;91.17
50364;BME280;36272;59.400;17.982;2023-07-02T15:02:04;98752.81;;;17.44;92.15
50364;BME280;36272;59.400;17.982;2023-07-02T15:07:05;98762.34;;;17.33;93.21
50364;BME280;36272;59.400;17.982;2023-07-02T15:12:07;98763.75;;;17.30;93.31
50364;BME280;36272;59.400;17.982;2023-07-02T15:17:09;98762.66;;;17.22;93.57
50364;BME280;36272;59.400;17.982;2023-07-02T15:22:18;98741.81;;;17.14;94.01
50364;BME280;36272;59.400;17.982;2023-07-02T15:27:20;98752.44;;;17.11;93.79
50364;BME280;36272;59.400;17.982;2023-07-02T15:32:22;98748.44;;;17.08;93.81
50364;BME280;36272;59.400;17.982;2023-07-02T15:37:27;98736.88;;;17.07;94.09
50364;BME280;36272;59.400;17.982;2023-07-02T15:42:28;98740.22;;;17.13;93.89
50364;BME280;36272;59.400;17.982;2023-07-02T15:47:31;98733.53;;;17.11;94.19
50364;BME280;36272;59.400;17.982;2023-07-02T15:52:32;98733.84;;;17.09;94.48
50364;BME280;36272;59.400;17.982;2023-07-02T15:57:34;98732.44;;;17.12;94.26
50364;BME280;36272;59.400;17.982;2023-07-02T16:02:36;98743.72;;;17.14;94.38
50364;BME280;36272;59.400;17.982;2023-07-02T16:07:38;98728.78;;;17.07;94.25
50364;BME280;36272;59.400;17.982;2023-07-02T16:12:42;98733.03;;;17.00;94.53
50364;BME280;36272;59.400;17.982;2023-07-02T16:17:46;98730.75;;;16.93;94.97
50364;BME280;36272;59.400;17.982;2023-07-02T16:22:48;98758.56;;;16.93;94.68
50364;BME280;36272;59.400;17.982;2023-07-02T16:27:49;98760.59;;;16.88;94.69
50364;BME280;36272;59.400;17.982;2023-07-02T16:32:51;98746.31;;;16.87;94.78
50364;BME280;36272;59.400;17.982;2023-07-02T16:37:53;98744.53;;;16.83;94.88
50364;BME280;36272;59.400;17.982;2023-07-02T16:42:54;98749.75;;;16.79;94.71
50364;BME280;36272;59.400;17.982;2023-07-02T16:47:56;98748.50;;;16.76;94.77
50364;BME280;36272;59.400;17.982;2023-07-02T16:52:59;98738.44;;;16.68;94.98
50364;BME280;36272;59.400;17.982;2023-07-02T16:58:07;98757.97;;;16.65;94.97
50364;BME280;36272;59.400;17.982;2023-07-02T17:03:16;98739.06;;;16.65;95.29
50364;BME280;36272;59.400;17.982;2023-07-02T17:08:20;98746.06;;;16.66;95.17
50364;BME280;36272;59.400;17.982;2023-07-02T17:13:22;98766.72;;;16.71;94.78
50364;BME280;36272;59.400;17.982;2023-07-02T17:18:27;98743.53;;;16.70;94.96
50364;BME280;36272;59.400;17.982;2023-07-02T17:23:29;98757.50;;;16.72;94.73
50364;BME280;36272;59.400;17.982;2023-07-02T17:28:33;98773.69;;;16.72;94.57
50364;BME280;36272;59.400;17.982;2023-07-02T17:33:39;98744.63;;;16.69;94.92
50364;BME280;36272;59.400;17.982;2023-07-02T17:38:40;98775.41;;;16.68;94.57
50364;BME280;36272;59.400;17.982;2023-07-02T17:43:47;98756.53;;;16.68;94.66
50364;BME280;36272;59.400;17.982;2023-07-02T17:48:49;98768.25;;;16.63;94.67
50364;BME280;36272;59.400;17.982;2023-07-02T17:54:13;98760.31;;;16.58;94.64
50364;BME280;36272;59.400;17.982;2023-07-02T17:59:16;98765.53;;;16.54;94.32
50364;BME280;36272;59.400;17.982;2023-07-02T18:04:18;98783.94;;;16.52;94.39
50364;BME280;36272;59.400;17.982;2023-07-02T18:09:21;98779.63;;;16.51;94.80
50364;BME280;36272;59.400;17.982;2023-07-02T18:14:24;98771.22;;;16.53;94.39
50364;BME280;36272;59.400;17.982;2023-07-02T18:19:27;98784.72;;;16.53;94.48
50364;BME280;36272;59.400;17.982;2023-07-02T18:24:32;98773.91;;;16.53;94.80
50364;BME280;36272;59.400;17.982;2023-07-02T18:29:35;98773.91;;;16.53;94.71
50364;BME280;36272;59.400;17.982;2023-07-02T18:34:39;98783.47;;;16.59;94.81
50364;BME280;36272;59.400;17.982;2023-07-02T18:39:41;98794.44;;;16.62;94.62
50364;BME280;36272;59.400;17.982;2023-07-02T18:44:43;98789.84;;;16.63;94.43
50364;BME280;36272;59.400;17.982;2023-07-02T18:49:45;98772.84;;;16.62;94.53
50364;BME280;36272;59.400;17.982;2023-07-02T18:54:47;98796.84;;;16.64;94.59
50364;BME280;36272;59.400;17.982;2023-07-02T18:59:54;98784.13;;;16.64;94.78
50364;BME280;36272;59.400;17.982;2023-07-02T19:04:58;98810.50;;;16.68;94.60
50364;BME280;36272;59.400;17.982;2023-07-02T19:10:10;98803.91;;;16.51;95.04
50364;BME280;36272;59.400;17.982;2023-07-02T19:15:12;98811.78;;;16.39;95.37
50364;BME280;36272;59.400;17.982;2023-07-02T19:20:24;98794.09;;;16.32;96.25
50364;BME280;36272;59.400;17.982;2023-07-02T19:25:31;98803.78;;;16.33;95.93
50364;BME280;36272;59.400;17.982;2023-07-02T19:30:42;98808.69;;;16.31;95.58
50364;BME280;36272;59.400;17.982;2023-07-02T19:35:46;98792.03;;;16.29;95.90
50364;BME280;36272;59.400;17.982;2023-07-02T19:41:05;98811.41;;;16.31;95.77
50364;BME280;36272;59.400;17.982;2023-07-02T19:46:07;98816.00;;;16.31;95.81
50364;BME280;36272;59.400;17.982;2023-07-02T19:51:09;98814.91;;;16.32;95.86
50364;BME280;36272;59.400;17.982;2023-07-02T19:56:13;98807.44;;;16.29;95.68
50364;BME280;36272;59.400;17.982;2023-07-02T20:01:15;98808.81;;;16.26;95.62
50364;BME280;36272;59.400;17.982;2023-07-02T20:06:37;98792.47;;;16.23;95.87
50364;BME280;36272;59.400;17.982;2023-07-02T20:11:39;98824.00;;;16.22;95.71
50364;BME280;36272;59.400;17.982;2023-07-02T20:16:41;98818.13;;;16.20;95.90
50364;BME280;36272;59.400;17.982;2023-07-02T20:21:42;98823.53;;;16.20;96.07
50364;BME280;36272;59.400;17.982;2023-07-02T20:26:45;98824.13;;;16.17;95.88
50364;BME280;36272;59.400;17.982;2023-07-02T20:31:47;98823.03;;;16.18;96.06
50364;BME280;36272;59.400;17.982;2023-07-02T20:36:55;98816.78;;;16.31;95.07
50364;BME280;36272;59.400;17.982;2023-07-02T20:42:26;98819.22;;;16.19;95.74
50364;BME280;36272;59.400;17.982;2023-07-02T20:47:33;98815.88;;;16.13;96.14
50364;BME280;36272;59.400;17.982;2023-07-02T20:52:37;98831.72;;;16.15;96.42
50364;BME280;36272;59.400;17.982;2023-07-02T20:57:38;98835.41;;;16.19;96.33
50364;BME280;36272;59.400;17.982;2023-07-02T21:02:45;98816.84;;;16.17;96.48
50364;BME280;36272;59.400;17.982;2023-07-02T21:07:47;98834.41;;;16.15;96.24
50364;BME280;36272;59.400;17.982;2023-07-02T21:12:50;98827.09;;;16.07;96.36
50364;BME280;36272;59.400;17.982;2023-07-02T21:17:55;98832.09;;;15.99;96.06
50364;BME280;36272;59.400;17.982;2023-07-02T21:23:10;98819.31;;;15.91;96.03
50364;BME280;36272;59.400;17.982;2023-07-02T21:28:11;98838.88;;;15.83;96.20
50364;BME280;36272;59.400;17.982;2023-07-02T21:33:13;98849.75;;;15.77;96.06
50364;BME280;36272;59.400;17.982;2023-07-02T21:38:15;98846.19;;;15.68;96.30
50364;BME280;36272;59.400;17.982;2023-07-02T21:43:16;98863.56;;;15.62;96.65
50364;BME280;36272;59.400;17.982;2023-07-02T21:48:18;98851.19;;;15.61;96.57
50364;BME280;36272;59.400;17.982;2023-07-02T21:53:20;98843.72;;;15.58;96.41
50364;BME280;36272;59.400;17.982;2023-07-02T21:58:22;98847.59;;;15.52;96.56
50364;BME280;36272;59.400;17.982;2023-07-02T22:03:24;98860.38;;;15.46;96.50
50364;BME280;36272;59.400;17.982;2023-07-02T22:08:25;98863.47;;;15.39;96.77
50364;BME280;36272;59.400;17.982;2023-07-02T22:13:28;98854.28;;;15.40;96.92
50364;BME280;36272;59.400;17.982;2023-07-02T22:18:30;98868.84;;;15.39;96.77
50364;BME280;36272;59.400;17.982;2023-07-02T22:23:34;98859.41;;;15.42;96.96
50364;BME280;36272;59.400;17.982;2023-07-02T22:28:36;98881.31;;;15.49;96.95
50364;BME280;36272;59.400;17.982;2023-07-02T22:33:38;98879.63;;;15.53;96.50
50364;BME280;36272;59.400;17.982;2023-07-02T22:38:39;98879.34;;;15.55;96.60
50364;BME280;36272;59.400;17.982;2023-07-02T22:43:41;98868.25;;;15.56;96.81
50364;BME280;36272;59.400;17.982;2023-07-02T22:48:43;98884.41;;;15.56;96.77
50364;BME280;36272;59.400;17.982;2023-07-02T22:53:45;98869.84;;;15.57;96.69
50364;BME280;36272;59.400;17.982;2023-07-02T22:58:46;98863.69;;;15.57;96.47
50364;BME280;36272;59.400;17.982;2023-07-02T23:03:48;98865.88;;;15.55;96.66
50364;BME280;36272;59.400;17.982;2023-07-02T23:08:50;98862.28;;;15.45;96.45
50364;BME280;36272;59.400;17.982;2023-07-02T23:13:51;98858.69;;;15.36;96.70
50364;BME280;36272;59.400;17.982;2023-07-02T23:18:53;98850.91;;;15.35;96.94
50364;BME280;36272;59.400;17.982;2023-07-02T23:23:55;98854.47;;;15.30;96.87
50364;BME280;36272;59.400;17.982;2023-07-02T23:28:59;98847.41;;;15.20;96.70
50364;BME280;36272;59.400;17.982;2023-07-02T23:34:01;98849.59;;;15.04;96.63
50364;BME280;36272;59.400;17.982;2023-07-02T23:39:02;98849.25;;;14.92;96.80
50364;BME280;36272;59.400;17.982;2023-07-02T23:44:09;98839.28;;;14.78;96.74
50364;BME280;36272;59.400;17.982;2023-07-02T23:49:11;98858.19;;;14.73;96.75
50364;BME280;36272;59.400;17.982;2023-07-02T23:54:13;98846.84;;;14.76;96.79
50364;BME280;36272;59.400;17.982;2023-07-02T23:59:14;98849.22;;;14.78;96.69
